Main page
METAR-TAF:

METAR-TAF

Airports :

Sukkur, Pakistan

Sukkur Airport

latitude: 27-43-19N, longitude: 068-47-31E, elevation: 60 m

Current weather observation

The report was made 14 minutes ago, at 19:00 UTC
Calm wind
Temperature 23°C
Humidity 78%
Pressure 1005 hPa
Visibility: 3000 m
haze

METAR: OPSK 211900Z 00000KT 3000 HZ NSC 23/19 Q1005 NOSIG

Time: 00:14 (19:14 UTC)

Forecast

The report was made 3 hours and 44 minutes ago, at 15:30 UTC
Forecast valid from 21 at 18 UTC to 22 at 18 UTC
Wind 3 kt from variable directions
Visibility: 3000 m
smoke
Temporary
from 22 at 00 UTC to 22 at 04 UTC
Wind kt from the North
Visibility: 1500 m
mist
From 22 at 0800 UTC
Wind 7 kt from the Southeast
Visibility: 4000 m
haze

TAF: OPSK 211530Z 2118/2218 VRB03KT 3000 FU NSC TEMPO 2200/2204 00000KT 1500 BR NSC FM220800 13007KT 4000 HZ NSC

Weather observations and forecasts of more than 4000 airports (METAR and TAF reports).

The available stations are represented by yellow and red dots on the map.

Hover mouse over dot to see the name of the station.

Then click to see weather observations and forecasts.

To change the map : click on the green buttons with a black cross to zoom in, on the green button with a dash to zoom out, or on the green arrows for adjacent maps.


METAR-TAF: